Aviation Digital Data Service (ADDS)

Output produced by METARs form (2026 UTC 18 July 2018)
found at http://www.aviationweather.gov/adds/metars/
 
METAR text: ZSQD 182000Z 17004MPS 9999 BKN016 26/24 Q1009 NOSIG
Conditions at: ZSQD (QINGDAO/TSINGTAO, CN) observed 2000 UTC 18 July 2018
Temperature: 26.0°C (79°F)
Dewpoint: 24.0°C (75°F) [RH = 89%]
Pressure (altimeter): 29.79 inches Hg (1009.0 mb)
Winds: from the S (170 degrees) at 9 MPH (8 knots; 4.2 m/s)
Visibility: 6 or more miles (10+ km)
Ceiling: 1600 feet AGL
Clouds: broken clouds at 1600 feet AGL
Weather: no significant weather observed at this time

METAR text: ZSQD 181900Z 17005MPS 9999 BKN017 26/23 Q1009 NOSIG
Conditions at: ZSQD (QINGDAO/TSINGTAO, CN) observed 1900 UTC 18 July 2018
Temperature: 26.0°C (79°F)
Dewpoint: 23.0°C (73°F) [RH = 84%]
Pressure (altimeter): 29.79 inches Hg (1009.0 mb)
Winds: from the S (170 degrees) at 12 MPH (10 knots; 5.2 m/s)
Visibility: 6 or more miles (10+ km)
Ceiling: 1700 feet AGL
Clouds: broken clouds at 1700 feet AGL
Weather: no significant weather observed at this time

METAR text: ZSQD 181800Z 18004MPS 9999 BKN016 26/23 Q1009 NOSIG
Conditions at: ZSQD (QINGDAO/TSINGTAO, CN) observed 1800 UTC 18 July 2018
Temperature: 26.0°C (79°F)
Dewpoint: 23.0°C (73°F) [RH = 84%]
Pressure (altimeter): 29.79 inches Hg (1009.0 mb)
Winds: from the S (180 degrees) at 9 MPH (8 knots; 4.2 m/s)
Visibility: 6 or more miles (10+ km)
Ceiling: 1600 feet AGL
Clouds: broken clouds at 1600 feet AGL
Weather: no significant weather observed at this time

METAR text: ZSQD 181700Z 17005MPS 9999 BKN016 26/24 Q1009 NOSIG
Conditions at: ZSQD (QINGDAO/TSINGTAO, CN) observed 1700 UTC 18 July 2018
Temperature: 26.0°C (79°F)
Dewpoint: 24.0°C (75°F) [RH = 89%]
Pressure (altimeter): 29.79 inches Hg (1009.0 mb)
Winds: from the S (170 degrees) at 12 MPH (10 knots; 5.2 m/s)
Visibility: 6 or more miles (10+ km)
Ceiling: 1600 feet AGL
Clouds: broken clouds at 1600 feet AGL
Weather: no significant weather observed at this time

METAR text: ZSQD 181600Z 18006MPS 9999 BKN015 26/24 Q1009 NOSIG
Conditions at: ZSQD (QINGDAO/TSINGTAO, CN) observed 1600 UTC 18 July 2018
Temperature: 26.0°C (79°F)
Dewpoint: 24.0°C (75°F) [RH = 89%]
Pressure (altimeter): 29.79 inches Hg (1009.0 mb)
Winds: from the S (180 degrees) at 14 MPH (12 knots; 6.2 m/s)
Visibility: 6 or more miles (10+ km)
Ceiling: 1500 feet AGL
Clouds: broken clouds at 1500 feet AGL
Weather: no significant weather observed at this time

METAR text: ZSQD 181500Z 17006MPS 9999 BKN013 26/23 Q1009 BECMG TL1550 BKN016
Conditions at: ZSQD (QINGDAO/TSINGTAO, CN) observed 1500 UTC 18 July 2018
Temperature: 26.0°C (79°F)
Dewpoint: 23.0°C (73°F) [RH = 84%]
Pressure (altimeter): 29.79 inches Hg (1009.0 mb)
Winds: from the S (170 degrees) at 14 MPH (12 knots; 6.2 m/s)
Visibility: 6 or more miles (10+ km)
Ceiling: 1300 feet AGL
Clouds: broken clouds at 1300 feet AGL
Weather: no significant weather observed at this time

METAR text: ZSQD 181400Z 16006MPS 9999 BKN013 26/24 Q1009 NOSIG
Conditions at: ZSQD (QINGDAO/TSINGTAO, CN) observed 1400 UTC 18 July 2018
Temperature: 26.0°C (79°F)
Dewpoint: 24.0°C (75°F) [RH = 89%]
Pressure (altimeter): 29.79 inches Hg (1009.0 mb)
Winds: from the SSE (160 degrees) at 14 MPH (12 knots; 6.2 m/s)
Visibility: 6 or more miles (10+ km)
Ceiling: 1300 feet AGL
Clouds: broken clouds at 1300 feet AGL
Weather: no significant weather observed at this time

METAR text: ZSQD 181300Z 16007MPS 9999 SCT013 26/23 Q1009 BECMG TL1450 BKN012
Conditions at: ZSQD (QINGDAO/TSINGTAO, CN) observed 1300 UTC 18 July 2018
Temperature: 26.0°C (79°F)
Dewpoint: 23.0°C (73°F) [RH = 84%]
Pressure (altimeter): 29.79 inches Hg (1009.0 mb)
Winds: from the SSE (160 degrees) at 16 MPH (14 knots; 7.3 m/s)
Visibility: 6 or more miles (10+ km)
Ceiling: at least 12,000 feet AGL
Clouds: scattered clouds at 1300 feet AGL
Weather: no significant weather observed at this time

METAR text: ZSQD 181200Z 16007MPS 9999 FEW020 26/23 Q1008 NOSIG
Conditions at: ZSQD (QINGDAO/TSINGTAO, CN) observed 1200 UTC 18 July 2018
Temperature: 26.0°C (79°F)
Dewpoint: 23.0°C (73°F) [RH = 84%]
Pressure (altimeter): 29.76 inches Hg (1008.0 mb)
Winds: from the SSE (160 degrees) at 16 MPH (14 knots; 7.3 m/s)
Visibility: 6 or more miles (10+ km)
Ceiling: at least 12,000 feet AGL
Clouds: few clouds at 2000 feet AGL
Weather: no significant weather observed at this time

METAR text: ZSQD 181100Z 17007MPS CAVOK 27/23 Q1007 NOSIG
Conditions at: ZSQD (QINGDAO/TSINGTAO, CN) observed 1100 UTC 18 July 2018
Temperature: 27.0°C (81°F)
Dewpoint: 23.0°C (73°F) [RH = 79%]
Pressure (altimeter): 29.73 inches Hg (1007.0 mb)
Winds: from the S (170 degrees) at 16 MPH (14 knots; 7.3 m/s)
Visibility: 6 or more miles (10+ km)
Ceiling: ceiling and visibility are OK
Clouds: unknown
Weather: no significant weather observed at this time

METAR text: ZSQD 181000Z 17006MPS CAVOK 28/22 Q1007 NOSIG
Conditions at: ZSQD (QINGDAO/TSINGTAO, CN) observed 1000 UTC 18 July 2018
Temperature: 28.0°C (82°F)
Dewpoint: 22.0°C (72°F) [RH = 70%]
Pressure (altimeter): 29.73 inches Hg (1007.0 mb)
Winds: from the S (170 degrees) at 14 MPH (12 knots; 6.2 m/s)
Visibility: 6 or more miles (10+ km)
Ceiling: ceiling and visibility are OK
Clouds: unknown
Weather: no significant weather observed at this time

METAR text: ZSQD 180900Z 17008MPS 9999 FEW020 29/23 Q1007 NOSIG
Conditions at: ZSQD (QINGDAO/TSINGTAO, CN) observed 0900 UTC 18 July 2018
Temperature: 29.0°C (84°F)
Dewpoint: 23.0°C (73°F) [RH = 70%]
Pressure (altimeter): 29.73 inches Hg (1007.0 mb)
Winds: from the S (170 degrees) at 18 MPH (16 knots; 8.3 m/s)
Visibility: 6 or more miles (10+ km)
Ceiling: at least 12,000 feet AGL
Clouds: few clouds at 2000 feet AGL
Weather: no significant weather observed at this time

METAR text: ZSQD 180800Z 17007MPS 9999 FEW020 29/24 Q1008 NOSIG
Conditions at: ZSQD (QINGDAO/TSINGTAO, CN) observed 0800 UTC 18 July 2018
Temperature: 29.0°C (84°F)
Dewpoint: 24.0°C (75°F) [RH = 74%]
Pressure (altimeter): 29.76 inches Hg (1008.0 mb)
Winds: from the S (170 degrees) at 16 MPH (14 knots; 7.3 m/s)
Visibility: 6 or more miles (10+ km)
Ceiling: at least 12,000 feet AGL
Clouds: few clouds at 2000 feet AGL
Weather: no significant weather observed at this time

METAR text: ZSQD 180700Z 17007MPS 9999 FEW020 29/24 Q1008 NOSIG
Conditions at: ZSQD (QINGDAO/TSINGTAO, CN) observed 0700 UTC 18 July 2018
Temperature: 29.0°C (84°F)
Dewpoint: 24.0°C (75°F) [RH = 74%]
Pressure (altimeter): 29.76 inches Hg (1008.0 mb)
Winds: from the S (170 degrees) at 16 MPH (14 knots; 7.3 m/s)
Visibility: 6 or more miles (10+ km)
Ceiling: at least 12,000 feet AGL
Clouds: few clouds at 2000 feet AGL
Weather: no significant weather observed at this time

METAR text: ZSQD 180600Z 16007MPS 9999 FEW020 30/25 Q1008 NOSIG
Conditions at: ZSQD (QINGDAO/TSINGTAO, CN) observed 0600 UTC 18 July 2018
Temperature: 30.0°C (86°F)
Dewpoint: 25.0°C (77°F) [RH = 75%]
Pressure (altimeter): 29.76 inches Hg (1008.0 mb)
Winds: from the SSE (160 degrees) at 16 MPH (14 knots; 7.3 m/s)
Visibility: 6 or more miles (10+ km)
Ceiling: at least 12,000 feet AGL
Clouds: few clouds at 2000 feet AGL
Weather: no significant weather observed at this time

METAR text: ZSQD 180500Z 17006MPS 140V200 9999 SCT020 30/25 Q1008 NOSIG
Conditions at: ZSQD (QINGDAO/TSINGTAO, CN) observed 0500 UTC 18 July 2018
Temperature: 30.0°C (86°F)
Dewpoint: 25.0°C (77°F) [RH = 75%]
Pressure (altimeter): 29.76 inches Hg (1008.0 mb)
Winds: from the S (170 degrees) at 14 MPH (12 knots; 6.2 m/s)
Visibility: 6 or more miles (10+ km)
Ceiling: at least 12,000 feet AGL
Clouds: scattered clouds at 2000 feet AGL
Weather: no significant weather observed at this time

METAR text: ZSQD 180400Z 17006MPS 140V210 9999 BKN020 30/25 Q1009 NOSIG
Conditions at: ZSQD (QINGDAO/TSINGTAO, CN) observed 0400 UTC 18 July 2018
Temperature: 30.0°C (86°F)
Dewpoint: 25.0°C (77°F) [RH = 75%]
Pressure (altimeter): 29.79 inches Hg (1009.0 mb)
Winds: from the S (170 degrees) at 14 MPH (12 knots; 6.2 m/s)
Visibility: 6 or more miles (10+ km)
Ceiling: 2000 feet AGL
Clouds: broken clouds at 2000 feet AGL
Weather: no significant weather observed at this time

METAR text: ZSQD 180300Z 19006MPS 160V220 9999 SCT020 30/25 Q1009 NOSIG
Conditions at: ZSQD (QINGDAO/TSINGTAO, CN) observed 0300 UTC 18 July 2018
Temperature: 30.0°C (86°F)
Dewpoint: 25.0°C (77°F) [RH = 75%]
Pressure (altimeter): 29.79 inches Hg (1009.0 mb)
Winds: from the S (190 degrees) at 14 MPH (12 knots; 6.2 m/s)
Visibility: 6 or more miles (10+ km)
Ceiling: at least 12,000 feet AGL
Clouds: scattered clouds at 2000 feet AGL
Weather: no significant weather observed at this time

METAR text: ZSQD 180200Z 17007MPS 9999 SCT017 30/25 Q1009 NOSIG
Conditions at: ZSQD (QINGDAO/TSINGTAO, CN) observed 0200 UTC 18 July 2018
Temperature: 30.0°C (86°F)
Dewpoint: 25.0°C (77°F) [RH = 75%]
Pressure (altimeter): 29.79 inches Hg (1009.0 mb)
Winds: from the S (170 degrees) at 16 MPH (14 knots; 7.3 m/s)
Visibility: 6 or more miles (10+ km)
Ceiling: at least 12,000 feet AGL
Clouds: scattered clouds at 1700 feet AGL
Weather: no significant weather observed at this time

METAR text: ZSQD 180100Z 17007MPS 9999 SCT015 29/24 Q1009 NOSIG
Conditions at: ZSQD (QINGDAO/TSINGTAO, CN) observed 0100 UTC 18 July 2018
Temperature: 29.0°C (84°F)
Dewpoint: 24.0°C (75°F) [RH = 74%]
Pressure (altimeter): 29.79 inches Hg (1009.0 mb)
Winds: from the S (170 degrees) at 16 MPH (14 knots; 7.3 m/s)
Visibility: 6 or more miles (10+ km)
Ceiling: at least 12,000 feet AGL
Clouds: scattered clouds at 1500 feet AGL
Weather: no significant weather observed at this time

METAR text: ZSQD 180000Z 18007MPS 9999 SCT011 28/24 Q1009 NOSIG
Conditions at: ZSQD (QINGDAO/TSINGTAO, CN) observed 0000 UTC 18 July 2018
Temperature: 28.0°C (82°F)
Dewpoint: 24.0°C (75°F) [RH = 79%]
Pressure (altimeter): 29.79 inches Hg (1009.0 mb)
Winds: from the S (180 degrees) at 16 MPH (14 knots; 7.3 m/s)
Visibility: 6 or more miles (10+ km)
Ceiling: at least 12,000 feet AGL
Clouds: scattered clouds at 1100 feet AGL
Weather: no significant weather observed at this time

METAR text: ZSQD 172300Z 17006MPS 9999 SCT011 SCT020 27/25 Q1008 NOSIG
Conditions at: ZSQD (QINGDAO/TSINGTAO, CN) observed 2300 UTC 17 July 2018
Temperature: 27.0°C (81°F)
Dewpoint: 25.0°C (77°F) [RH = 89%]
Pressure (altimeter): 29.76 inches Hg (1008.0 mb)
Winds: from the S (170 degrees) at 14 MPH (12 knots; 6.2 m/s)
Visibility: 6 or more miles (10+ km)
Ceiling: at least 12,000 feet AGL
Clouds: scattered clouds at 1100 feet AGL
scattered clouds at 2000 feet AGL
Weather: no significant weather observed at this time

METAR text: ZSQD 172200Z 17005MPS 9999 SCT011 SCT020 26/24 Q1008 NOSIG
Conditions at: ZSQD (QINGDAO/TSINGTAO, CN) observed 2200 UTC 17 July 2018
Temperature: 26.0°C (79°F)
Dewpoint: 24.0°C (75°F) [RH = 89%]
Pressure (altimeter): 29.76 inches Hg (1008.0 mb)
Winds: from the S (170 degrees) at 12 MPH (10 knots; 5.2 m/s)
Visibility: 6 or more miles (10+ km)
Ceiling: at least 12,000 feet AGL
Clouds: scattered clouds at 1100 feet AGL
scattered clouds at 2000 feet AGL
Weather: no significant weather observed at this time

METAR text: ZSQD 172100Z 17005MPS 9999 SCT010 26/24 Q1008 NOSIG
Conditions at: ZSQD (QINGDAO/TSINGTAO, CN) observed 2100 UTC 17 July 2018
Temperature: 26.0°C (79°F)
Dewpoint: 24.0°C (75°F) [RH = 89%]
Pressure (altimeter): 29.76 inches Hg (1008.0 mb)
Winds: from the S (170 degrees) at 12 MPH (10 knots; 5.2 m/s)
Visibility: 6 or more miles (10+ km)
Ceiling: at least 12,000 feet AGL
Clouds: scattered clouds at 1000 feet AGL
Weather: no significant weather observed at this time

METAR text: ZSQD 172000Z 17005MPS 9999 SCT010 26/25 Q1008 NOSIG
Conditions at: ZSQD (QINGDAO/TSINGTAO, CN) observed 2000 UTC 17 July 2018
Temperature: 26.0°C (79°F)
Dewpoint: 25.0°C (77°F) [RH = 94%]
Pressure (altimeter): 29.76 inches Hg (1008.0 mb)
Winds: from the S (170 degrees) at 12 MPH (10 knots; 5.2 m/s)
Visibility: 6 or more miles (10+ km)
Ceiling: at least 12,000 feet AGL
Clouds: scattered clouds at 1000 feet AGL
Weather: no significant weather observed at this time

METAR text: ZSQD 171900Z 18003MPS 9999 SCT011 26/24 Q1008 NOSIG
Conditions at: ZSQD (QINGDAO/TSINGTAO, CN) observed 1900 UTC 17 July 2018
Temperature: 26.0°C (79°F)
Dewpoint: 24.0°C (75°F) [RH = 89%]
Pressure (altimeter): 29.76 inches Hg (1008.0 mb)
Winds: from the S (180 degrees) at 7 MPH (6 knots; 3.1 m/s)
Visibility: 6 or more miles (10+ km)
Ceiling: at least 12,000 feet AGL
Clouds: scattered clouds at 1100 feet AGL
Weather: no significant weather observed at this time

METAR text: ZSQD 171800Z 17005MPS 9999 SCT011 26/24 Q1008 NOSIG
Conditions at: ZSQD (QINGDAO/TSINGTAO, CN) observed 1800 UTC 17 July 2018
Temperature: 26.0°C (79°F)
Dewpoint: 24.0°C (75°F) [RH = 89%]
Pressure (altimeter): 29.76 inches Hg (1008.0 mb)
Winds: from the S (170 degrees) at 12 MPH (10 knots; 5.2 m/s)
Visibility: 6 or more miles (10+ km)
Ceiling: at least 12,000 feet AGL
Clouds: scattered clouds at 1100 feet AGL
Weather: no significant weather observed at this time

METAR text: ZSQD 171700Z 18003MPS 9999 SCT013 26/24 Q1008 NOSIG
Conditions at: ZSQD (QINGDAO/TSINGTAO, CN) observed 1700 UTC 17 July 2018
Temperature: 26.0°C (79°F)
Dewpoint: 24.0°C (75°F) [RH = 89%]
Pressure (altimeter): 29.76 inches Hg (1008.0 mb)
Winds: from the S (180 degrees) at 7 MPH (6 knots; 3.1 m/s)
Visibility: 6 or more miles (10+ km)
Ceiling: at least 12,000 feet AGL
Clouds: scattered clouds at 1300 feet AGL
Weather: no significant weather observed at this time

METAR text: ZSQD 171600Z 17005MPS 140V200 9999 SCT013 26/24 Q1007 NOSIG
Conditions at: ZSQD (QINGDAO/TSINGTAO, CN) observed 1600 UTC 17 July 2018
Temperature: 26.0°C (79°F)
Dewpoint: 24.0°C (75°F) [RH = 89%]
Pressure (altimeter): 29.73 inches Hg (1007.0 mb)
Winds: from the S (170 degrees) at 12 MPH (10 knots; 5.2 m/s)
Visibility: 6 or more miles (10+ km)
Ceiling: at least 12,000 feet AGL
Clouds: scattered clouds at 1300 feet AGL
Weather: no significant weather observed at this time

METAR text: ZSQD 171500Z 18005MPS 9999 FEW013 26/24 Q1007 NOSIG
Conditions at: ZSQD (QINGDAO/TSINGTAO, CN) observed 1500 UTC 17 July 2018
Temperature: 26.0°C (79°F)
Dewpoint: 24.0°C (75°F) [RH = 89%]
Pressure (altimeter): 29.73 inches Hg (1007.0 mb)
Winds: from the S (180 degrees) at 12 MPH (10 knots; 5.2 m/s)
Visibility: 6 or more miles (10+ km)
Ceiling: at least 12,000 feet AGL
Clouds: few clouds at 1300 feet AGL
Weather: no significant weather observed at this time

METAR text: ZSQD 171400Z 19004MPS 160V220 9999 FEW013 26/24 Q1007 NOSIG
Conditions at: ZSQD (QINGDAO/TSINGTAO, CN) observed 1400 UTC 17 July 2018
Temperature: 26.0°C (79°F)
Dewpoint: 24.0°C (75°F) [RH = 89%]
Pressure (altimeter): 29.73 inches Hg (1007.0 mb)
Winds: from the S (190 degrees) at 9 MPH (8 knots; 4.2 m/s)
Visibility: 6 or more miles (10+ km)
Ceiling: at least 12,000 feet AGL
Clouds: few clouds at 1300 feet AGL
Weather: no significant weather observed at this time

METAR text: ZSQD 171300Z 17006MPS 9999 FEW013 26/24 Q1007 NOSIG
Conditions at: ZSQD (QINGDAO/TSINGTAO, CN) observed 1300 UTC 17 July 2018
Temperature: 26.0°C (79°F)
Dewpoint: 24.0°C (75°F) [RH = 89%]
Pressure (altimeter): 29.73 inches Hg (1007.0 mb)
Winds: from the S (170 degrees) at 14 MPH (12 knots; 6.2 m/s)
Visibility: 6 or more miles (10+ km)
Ceiling: at least 12,000 feet AGL
Clouds: few clouds at 1300 feet AGL
Weather: no significant weather observed at this time

METAR text: ZSQD 171200Z 17006MPS 9999 BKN009 26/25 Q1007 NOSIG
Conditions at: ZSQD (QINGDAO/TSINGTAO, CN) observed 1200 UTC 17 July 2018
Temperature: 26.0°C (79°F)
Dewpoint: 25.0°C (77°F) [RH = 94%]
Pressure (altimeter): 29.73 inches Hg (1007.0 mb)
Winds: from the S (170 degrees) at 14 MPH (12 knots; 6.2 m/s)
Visibility: 6 or more miles (10+ km)
Ceiling: 900 feet AGL
Clouds: broken clouds at 900 feet AGL
Weather: no significant weather observed at this time

METAR text: ZSQD 171100Z 17007MPS 9999 BKN009 27/25 Q1006 NOSIG
Conditions at: ZSQD (QINGDAO/TSINGTAO, CN) observed 1100 UTC 17 July 2018
Temperature: 27.0°C (81°F)
Dewpoint: 25.0°C (77°F) [RH = 89%]
Pressure (altimeter): 29.70 inches Hg (1006.0 mb)
Winds: from the S (170 degrees) at 16 MPH (14 knots; 7.3 m/s)
Visibility: 6 or more miles (10+ km)
Ceiling: 900 feet AGL
Clouds: broken clouds at 900 feet AGL
Weather: no significant weather observed at this time

METAR text: ZSQD 171000Z 17007MPS 9999 BKN009 BKN020 27/25 Q1006 NOSIG
Conditions at: ZSQD (QINGDAO/TSINGTAO, CN) observed 1000 UTC 17 July 2018
Temperature: 27.0°C (81°F)
Dewpoint: 25.0°C (77°F) [RH = 89%]
Pressure (altimeter): 29.70 inches Hg (1006.0 mb)
Winds: from the S (170 degrees) at 16 MPH (14 knots; 7.3 m/s)
Visibility: 6 or more miles (10+ km)
Ceiling: 900 feet AGL
Clouds: broken clouds at 900 feet AGL
broken clouds at 2000 feet AGL
Weather: no significant weather observed at this time

METAR text: ZSQD 170900Z 17007MPS 9999 SCT011 BKN020 27/25 Q1007 BECMG TL1030 BKN011 BKN020
Conditions at: ZSQD (QINGDAO/TSINGTAO, CN) observed 0900 UTC 17 July 2018
Temperature: 27.0°C (81°F)
Dewpoint: 25.0°C (77°F) [RH = 89%]
Pressure (altimeter): 29.73 inches Hg (1007.0 mb)
Winds: from the S (170 degrees) at 16 MPH (14 knots; 7.3 m/s)
Visibility: 6 or more miles (10+ km)
Ceiling: 2000 feet AGL
Clouds: scattered clouds at 1100 feet AGL
broken clouds at 2000 feet AGL
Weather: no significant weather observed at this time